createdAt,value
2023-02-09T00:02:18.129Z,16.42
2023-02-09T00:04:46.282Z,17.23
2023-02-09T00:07:15.679Z,16.38
2023-02-09T00:09:44.958Z,18.77
2023-02-09T00:12:31.110Z,18.48
2023-02-09T00:15:00.278Z,17.08
2023-02-09T00:17:28.510Z,17.15
2023-02-09T00:19:56.560Z,18.35
2023-02-09T00:22:26.119Z,19.15
2023-02-09T00:24:57.576Z,19.50
2023-02-09T00:27:25.761Z,18.20
2023-02-09T00:29:54.231Z,20.08
2023-02-09T00:32:22.726Z,20.67
2023-02-09T00:34:53.452Z,20.20
2023-02-09T00:37:21.878Z,20.52
2023-02-09T00:39:51.241Z,18.20
2023-02-09T00:42:19.796Z,19.83
2023-02-09T00:44:48.065Z,20.00
2023-02-09T00:47:16.129Z,20.20
2023-02-09T00:49:47.317Z,20.48
2023-02-09T00:52:15.450Z,21.20
2023-02-09T00:54:46.503Z,21.25
2023-02-09T00:57:16.132Z,19.23
2023-02-09T00:59:44.548Z,20.30
2023-02-09T01:02:12.751Z,19.45
2023-02-09T01:04:40.964Z,17.90
2023-02-09T01:07:09.349Z,18.85
2023-02-09T01:09:38.398Z,18.73
2023-02-09T01:12:06.908Z,19.13
2023-02-09T01:14:36.515Z,20.42
2023-02-09T01:17:04.881Z,20.70
2023-02-09T01:19:35.541Z,18.77
2023-02-09T01:22:04.133Z,20.77
2023-02-09T01:24:32.080Z,19.73
2023-02-09T01:27:00.232Z,19.42
2023-02-09T01:29:28.282Z,19.95
2023-02-09T01:31:57.705Z,19.30
2023-02-09T01:34:25.828Z,18.63
2023-02-09T01:36:54.130Z,19.77
2023-02-09T01:39:22.652Z,18.88
2023-02-09T01:41:53.188Z,17.88
2023-02-09T01:45:13.286Z,20.15
2023-02-09T01:47:46.120Z,19.52
2023-02-09T01:50:15.433Z,18.75
2023-02-09T01:52:43.900Z,19.98
2023-02-09T01:55:15.287Z,20.00
2023-02-09T01:57:46.551Z,19.27
2023-02-09T02:00:17.409Z,19.45
2023-02-09T02:02:50.502Z,19.90
2023-02-09T02:05:18.955Z,18.90
2023-02-09T02:07:51.010Z,19.02
2023-02-09T02:10:19.448Z,19.55
2023-02-09T02:12:48.457Z,20.17
2023-02-09T02:15:16.684Z,18.85
2023-02-09T02:18:09.380Z,18.45
2023-02-09T02:21:15.329Z,17.33
2023-02-09T02:23:49.656Z,18.83
2023-02-09T02:26:35.006Z,18.00
2023-02-09T02:29:35.252Z,18.60
2023-02-09T02:32:17.959Z,18.60
2023-02-09T02:34:49.622Z,17.65
2023-02-09T02:37:35.525Z,17.17
2023-02-09T02:40:11.450Z,18.55
2023-02-09T02:42:50.163Z,17.65
2023-02-09T02:45:29.151Z,17.80
2023-02-09T02:48:02.970Z,17.33
2023-02-09T02:50:32.267Z,16.98
2023-02-09T02:53:04.646Z,17.27
2023-02-09T02:55:36.152Z,17.00
2023-02-09T02:58:08.820Z,18.40
2023-02-09T03:00:40.458Z,16.98
2023-02-09T03:03:13.406Z,16.90
2023-02-09T03:05:42.937Z,15.75
2023-02-09T03:08:11.290Z,16.42
2023-02-09T03:10:41.259Z,16.58
2023-02-09T03:13:28.743Z,16.17
2023-02-09T03:16:05.887Z,14.85
2023-02-09T03:18:45.660Z,15.20
2023-02-09T03:21:17.045Z,16.58
2023-02-09T03:23:48.811Z,14.45
2023-02-09T03:26:33.326Z,14.88
2023-02-09T03:29:05.468Z,16.85
2023-02-09T03:31:34.052Z,14.60
2023-02-09T03:34:03.355Z,16.00
2023-02-09T03:36:34.226Z,15.23
2023-02-09T03:39:02.819Z,16.55
2023-02-09T03:41:30.916Z,14.05
2023-02-09T03:44:17.982Z,15.73
2023-02-09T03:46:46.102Z,15.63
2023-02-09T03:49:15.426Z,15.50
2023-02-09T03:51:43.627Z,14.85
2023-02-09T03:54:11.992Z,18.25
2023-02-09T03:56:40.035Z,15.25
2023-02-09T03:59:08.561Z,17.63
2023-02-09T04:01:36.836Z,16.25
2023-02-09T04:04:07.707Z,15.85
2023-02-09T04:06:37.266Z,15.95
2023-02-09T04:09:06.744Z,15.65
2023-02-09T04:11:35.182Z,15.18
2023-02-09T04:14:03.356Z,16.02
2023-02-09T04:16:32.318Z,15.77
2023-02-09T04:19:00.351Z,17.60
2023-02-09T04:21:30.626Z,16.15
2023-02-09T04:24:00.212Z,16.38
2023-02-09T04:26:28.420Z,16.83
2023-02-09T04:28:56.360Z,16.52
2023-02-09T04:31:24.845Z,15.43
2023-02-09T04:33:53.212Z,17.10
2023-02-09T04:36:23.318Z,16.08
2023-02-09T04:38:52.151Z,16.83
2023-02-09T04:41:21.865Z,15.00
2023-02-09T04:43:50.462Z,15.45
2023-02-09T04:46:21.666Z,16.20
2023-02-09T04:48:49.725Z,16.40
2023-02-09T04:51:17.967Z,15.00
2023-02-09T04:53:47.307Z,16.95
2023-02-09T04:56:18.394Z,17.48
2023-02-09T04:59:05.627Z,16.52
2023-02-09T05:01:33.758Z,16.55
2023-02-09T05:04:03.460Z,16.00
2023-02-09T05:06:31.985Z,15.75
2023-02-09T05:09:00.048Z,16.77
2023-02-09T05:11:28.386Z,15.90
2023-02-09T05:13:58.027Z,16.55
2023-02-09T05:16:26.417Z,18.33
2023-02-09T05:18:55.496Z,16.23
2023-02-09T05:21:23.485Z,16.10
2023-02-09T05:23:51.757Z,16.90
2023-02-09T05:26:19.860Z,17.20
2023-02-09T05:28:48.970Z,17.55
2023-02-09T05:31:19.034Z,16.15
2023-02-09T05:33:48.860Z,15.05
2023-02-09T05:36:17.340Z,16.67
2023-02-09T05:38:45.410Z,17.45
2023-02-09T05:41:36.608Z,17.92
2023-02-09T05:44:05.013Z,16.73
2023-02-09T05:46:34.600Z,17.35
2023-02-09T05:49:02.608Z,16.58
2023-02-09T05:51:32.934Z,17.92
2023-02-09T05:54:01.346Z,17.48
2023-02-09T05:56:30.418Z,18.83
2023-02-09T05:58:58.423Z,17.20
2023-02-09T06:01:26.639Z,16.17
2023-02-09T06:03:57.016Z,19.88
2023-02-09T06:06:25.131Z,20.30
2023-02-09T06:08:53.466Z,19.33
2023-02-09T06:11:21.815Z,19.42
2023-02-09T06:13:51.217Z,19.98
2023-02-09T06:16:19.334Z,16.42
2023-02-09T06:18:48.922Z,18.98
2023-02-09T06:21:18.567Z,17.50
2023-02-09T06:23:47.041Z,18.02
2023-02-09T06:26:18.429Z,17.65
2023-02-09T06:28:47.040Z,17.30
2023-02-09T06:31:16.449Z,16.25
2023-02-09T06:33:45.894Z,16.85
2023-02-09T06:36:13.937Z,15.40
2023-02-09T06:38:43.505Z,16.05
2023-02-09T06:41:11.710Z,17.58
2023-02-09T06:43:40.232Z,16.45
2023-02-09T06:46:09.414Z,17.02
2023-02-09T06:48:38.419Z,17.08
2023-02-09T06:51:10.546Z,16.13
2023-02-09T06:56:09.879Z,15.90
2023-02-09T06:58:38.892Z,16.67
2023-02-09T07:01:08.993Z,15.80
2023-02-09T07:03:37.872Z,17.67
2023-02-09T07:06:07.876Z,16.17
2023-02-09T07:08:38.530Z,15.77
2023-02-09T07:11:10.211Z,16.08
2023-02-09T07:13:38.496Z,16.52
2023-02-09T07:16:09.246Z,17.55
2023-02-09T07:18:37.787Z,16.13
2023-02-09T07:21:08.036Z,15.60
2023-02-09T07:23:36.367Z,16.38
2023-02-09T07:26:05.363Z,15.73
2023-02-09T07:28:36.197Z,16.17
2023-02-09T07:31:05.995Z,16.08
2023-02-09T07:33:37.180Z,17.25
2023-02-09T07:36:06.407Z,15.60
2023-02-09T07:38:36.097Z,14.80
2023-02-09T07:41:06.434Z,15.88
2023-02-09T07:43:36.311Z,15.32
2023-02-09T07:46:06.167Z,16.33
2023-02-09T07:48:34.865Z,15.82
2023-02-09T07:51:03.120Z,16.15
2023-02-09T07:53:31.613Z,15.32
2023-02-09T07:55:59.758Z,13.43
2023-02-09T07:58:27.833Z,15.95
2023-02-09T08:01:04.826Z,16.42
2023-02-09T08:03:33.483Z,15.23
2023-02-09T08:06:03.113Z,14.43
2023-02-09T08:08:34.218Z,14.35
2023-02-09T08:11:04.676Z,14.50
2023-02-09T08:13:35.677Z,14.63
2023-02-09T08:16:07.227Z,14.02
2023-02-09T08:18:37.498Z,13.52
2023-02-09T08:21:06.840Z,13.40
2023-02-09T08:23:36.952Z,12.80
2023-02-09T08:26:11.080Z,12.25
2023-02-09T08:28:45.093Z,13.98
2023-02-09T08:31:16.800Z,12.73
2023-02-09T08:33:46.889Z,11.82
2023-02-09T08:36:16.487Z,14.30
2023-02-09T08:38:47.436Z,12.95
2023-02-09T08:41:16.888Z,13.27
2023-02-09T08:43:48.851Z,11.35
2023-02-09T08:46:19.302Z,13.15
2023-02-09T08:48:47.889Z,13.30
2023-02-09T08:51:18.628Z,11.95
2023-02-09T08:53:52.221Z,13.23
2023-02-09T08:56:21.080Z,12.30
2023-02-09T08:58:50.467Z,13.32
2023-02-09T09:01:20.542Z,11.48
2023-02-09T09:03:49.498Z,13.02
2023-02-09T09:06:17.983Z,12.57
2023-02-09T09:08:46.524Z,13.52
2023-02-09T09:11:15.082Z,13.13
2023-02-09T09:13:44.056Z,12.05
2023-02-09T09:16:16.519Z,12.88
2023-02-09T09:18:46.722Z,13.23
2023-02-09T09:21:17.561Z,11.85
2023-02-09T09:23:48.022Z,12.52
2023-02-09T09:26:16.491Z,12.25
2023-02-09T09:28:44.848Z,13.48
2023-02-09T09:31:15.019Z,11.85
2023-02-09T09:33:51.744Z,12.10
2023-02-09T09:36:20.764Z,12.55
2023-02-09T09:38:49.165Z,12.77
2023-02-09T09:41:24.399Z,11.80
2023-02-09T09:43:54.032Z,12.30
2023-02-09T09:46:25.183Z,12.50
2023-02-09T09:48:58.788Z,13.27
2023-02-09T09:51:35.199Z,12.55
2023-02-09T09:54:04.772Z,12.95
2023-02-09T09:56:34.746Z,12.30
2023-02-09T09:59:03.393Z,12.32
2023-02-09T10:01:34.726Z,12.25
2023-02-09T10:04:10.573Z,11.07
2023-02-09T10:06:42.325Z,11.73
2023-02-09T10:09:17.950Z,11.98
2023-02-09T10:11:51.336Z,11.10
2023-02-09T10:14:21.013Z,11.50
2023-02-09T10:16:50.446Z,12.02
2023-02-09T10:19:22.432Z,10.70
2023-02-09T10:21:51.624Z,10.70
2023-02-09T10:24:25.577Z,11.00
2023-02-09T10:27:08.956Z,10.68
2023-02-09T10:29:37.849Z,10.25
2023-02-09T10:32:09.546Z,11.63
2023-02-09T10:34:46.735Z,11.82
2023-02-09T10:37:23.745Z,9.77
2023-02-09T10:40:00.497Z,10.32
2023-02-09T10:42:32.790Z,10.38
2023-02-09T10:45:07.723Z,10.07
2023-02-09T10:47:36.476Z,10.48
2023-02-09T10:50:17.205Z,10.82
2023-02-09T10:52:56.239Z,10.63
2023-02-09T10:55:29.200Z,10.20
2023-02-09T10:58:24.118Z,10.85
2023-02-09T11:01:00.158Z,10.05
2023-02-09T11:03:29.177Z,9.52
2023-02-09T11:06:02.309Z,9.95
2023-02-09T11:08:39.714Z,10.30
2023-02-09T11:11:10.717Z,9.70
2023-02-09T11:13:40.430Z,10.98
2023-02-09T11:16:27.627Z,10.57
2023-02-09T11:19:00.515Z,10.13
2023-02-09T11:21:39.930Z,10.70
2023-02-09T11:24:11.683Z,10.90
2023-02-09T11:26:59.369Z,10.35
2023-02-09T11:29:35.122Z,10.75
2023-02-09T11:32:13.040Z,9.27
2023-02-09T11:34:56.140Z,9.50
2023-02-09T11:37:38.082Z,8.73
2023-02-09T11:40:24.744Z,9.55
2023-02-09T11:43:02.103Z,9.02
2023-02-09T11:45:33.651Z,10.23
2023-02-09T11:48:06.429Z,10.25
2023-02-09T11:50:40.408Z,9.35
2023-02-09T11:53:17.670Z,9.30
2023-02-09T11:55:49.360Z,10.13
2023-02-09T11:58:46.051Z,9.95
2023-02-09T12:01:23.485Z,9.68
2023-02-09T12:04:07.304Z,9.18
2023-02-09T12:06:40.329Z,8.38
2023-02-09T12:09:26.525Z,10.13
2023-02-09T12:12:03.837Z,8.25
2023-02-09T12:14:46.103Z,9.00
2023-02-09T12:17:19.666Z,9.52
2023-02-09T12:19:56.411Z,9.13
2023-02-09T12:22:50.510Z,8.63
2023-02-09T12:25:34.675Z,8.55
2023-02-09T12:28:17.132Z,8.82
2023-02-09T12:33:31.839Z,8.65
2023-02-09T12:36:02.627Z,7.75
2023-02-09T12:38:52.265Z,8.30
2023-02-09T12:41:25.614Z,8.55
2023-02-09T12:44:07.633Z,9.50
2023-02-09T12:46:53.950Z,8.48
2023-02-09T12:49:22.800Z,8.25
2023-02-09T12:52:07.156Z,8.15
2023-02-09T12:54:40.328Z,9.13
2023-02-09T12:57:42.384Z,8.40
2023-02-09T13:00:34.970Z,9.15
2023-02-09T13:03:22.222Z,8.23
2023-02-09T13:05:51.300Z,8.68
2023-02-09T13:08:30.953Z,7.93
2023-02-09T13:11:03.810Z,8.52
2023-02-09T13:13:41.645Z,8.25
2023-02-09T13:16:27.408Z,8.20
2023-02-09T13:19:00.948Z,8.73
2023-02-09T13:21:37.181Z,7.97
2023-02-09T13:24:09.770Z,7.72
2023-02-09T13:26:50.017Z,7.78
2023-02-09T13:29:22.113Z,8.45
2023-02-09T13:32:01.384Z,7.75
2023-02-09T13:34:34.846Z,8.77
2023-02-09T13:37:13.809Z,7.95
2023-02-09T13:39:44.266Z,7.68
2023-02-09T13:42:13.446Z,7.70
2023-02-09T13:44:46.651Z,7.25
2023-02-09T13:47:19.343Z,7.88
2023-02-09T13:49:57.318Z,7.68
2023-02-09T13:52:26.822Z,7.55
2023-02-09T13:54:55.552Z,8.15
2023-02-09T13:57:32.730Z,7.60
2023-02-09T14:00:09.843Z,6.60
2023-02-09T14:02:39.545Z,7.53
2023-02-09T14:05:09.534Z,7.80
2023-02-09T14:07:43.039Z,8.07
2023-02-09T14:10:14.248Z,7.30
2023-02-09T14:12:55.774Z,7.72
2023-02-09T14:15:48.635Z,7.85
2023-02-09T14:18:35.686Z,7.47
2023-02-09T14:21:15.643Z,6.88
2023-02-09T14:24:12.809Z,6.82
2023-02-09T14:26:52.045Z,6.95
2023-02-09T14:29:24.684Z,6.68
2023-02-09T14:31:54.629Z,7.35
2023-02-09T14:34:45.694Z,6.55
2023-02-09T14:37:31.844Z,6.00
2023-02-09T14:40:02.263Z,8.30
2023-02-09T14:42:33.006Z,7.10
2023-02-09T14:45:03.066Z,7.45
2023-02-09T14:47:38.718Z,7.40
2023-02-09T14:50:13.273Z,7.43
2023-02-09T14:52:46.702Z,6.93
2023-02-09T14:55:18.183Z,7.60
2023-02-09T14:57:48.370Z,7.35
2023-02-09T15:00:20.678Z,7.05
2023-02-09T15:08:05.823Z,7.63
2023-02-09T15:10:36.915Z,8.68
2023-02-09T15:13:08.278Z,6.93
2023-02-09T15:15:40.704Z,7.25
2023-02-09T15:18:15.134Z,7.17
2023-02-09T15:20:47.156Z,7.57
2023-02-09T15:23:15.502Z,7.07
2023-02-09T15:25:44.736Z,8.15
2023-02-09T15:28:16.224Z,8.20
2023-02-09T15:30:45.588Z,8.35
2023-02-09T15:33:14.036Z,7.55
2023-02-09T15:35:42.520Z,7.00
2023-02-09T15:38:18.669Z,7.18
2023-02-09T15:41:06.801Z,7.88
2023-02-09T15:43:49.079Z,7.85
2023-02-09T15:46:36.198Z,8.73
2023-02-09T15:49:05.837Z,7.20
2023-02-09T15:51:38.577Z,8.80
2023-02-09T15:54:17.534Z,8.73
2023-02-09T15:56:46.764Z,6.97
2023-02-09T15:59:19.600Z,8.05
2023-02-09T16:01:48.752Z,7.63
2023-02-09T16:04:16.744Z,8.43
2023-02-09T16:06:53.370Z,9.23
2023-02-09T16:09:28.723Z,8.27
2023-02-09T16:11:59.090Z,7.68
2023-02-09T16:14:28.954Z,8.32
2023-02-09T16:17:01.336Z,7.32
2023-02-09T16:19:29.825Z,8.55
2023-02-09T16:21:59.676Z,7.65
2023-02-09T16:24:32.907Z,7.88
2023-02-09T16:27:01.625Z,7.82
2023-02-09T16:29:30.106Z,8.15
2023-02-09T16:31:58.198Z,7.72
2023-02-09T16:34:26.470Z,7.03
2023-02-09T16:36:54.722Z,7.57
2023-02-09T16:39:23.878Z,7.80
2023-02-09T16:41:54.738Z,7.55
2023-02-09T16:44:25.207Z,8.23
2023-02-09T16:46:55.786Z,7.95
2023-02-09T16:49:31.858Z,8.07
2023-02-09T16:52:05.127Z,8.00
2023-02-09T16:54:38.142Z,8.57
2023-02-09T16:57:07.701Z,7.78
2023-02-09T16:59:35.895Z,7.65
2023-02-09T17:02:05.648Z,8.73
2023-02-09T17:04:38.182Z,8.63
2023-02-09T17:07:06.733Z,8.40
2023-02-09T17:09:35.765Z,8.15
2023-02-09T17:12:04.127Z,8.68
2023-02-09T17:14:36.560Z,7.85
2023-02-09T17:19:47.014Z,8.38
2023-02-09T17:22:16.715Z,8.52
2023-02-09T17:24:47.108Z,8.30
2023-02-09T17:27:27.289Z,7.68
2023-02-09T17:30:01.349Z,8.88
2023-02-09T17:32:29.802Z,8.57
2023-02-09T17:34:58.211Z,7.82
2023-02-09T17:37:26.503Z,9.63
2023-02-09T17:39:55.191Z,8.90
2023-02-09T17:42:26.035Z,8.65
2023-02-09T17:44:55.906Z,8.38
2023-02-09T17:47:26.724Z,8.03
2023-02-09T17:49:56.458Z,9.32
2023-02-09T17:52:24.825Z,9.45
2023-02-09T17:54:54.312Z,8.77
2023-02-09T17:57:22.682Z,8.98
2023-02-09T17:59:50.742Z,9.55
2023-02-09T18:02:20.836Z,8.60
2023-02-09T18:04:50.688Z,9.13
2023-02-09T18:07:20.558Z,9.95
2023-02-09T18:09:50.288Z,8.38
2023-02-09T18:12:20.596Z,9.35
2023-02-09T18:14:48.930Z,9.23
2023-02-09T18:17:17.241Z,10.02
2023-02-09T18:19:45.463Z,9.60
2023-02-09T18:22:17.736Z,9.90
2023-02-09T18:24:46.272Z,9.75
2023-02-09T18:27:16.233Z,9.77
2023-02-09T18:29:44.904Z,10.15
2023-02-09T18:32:16.870Z,9.00
2023-02-09T18:34:45.234Z,10.60
2023-02-09T18:37:17.869Z,10.43
2023-02-09T18:39:48.232Z,10.15
2023-02-09T18:42:17.314Z,10.43
2023-02-09T18:44:45.674Z,10.82
2023-02-09T18:47:13.688Z,9.63
2023-02-09T18:49:42.074Z,10.65
2023-02-09T18:52:10.382Z,11.35
2023-02-09T18:54:42.033Z,11.73
2023-02-09T18:57:10.070Z,10.60
2023-02-09T18:59:39.078Z,10.30
2023-02-09T19:02:10.224Z,10.82
2023-02-09T19:04:38.250Z,11.65
2023-02-09T19:07:09.575Z,11.50
2023-02-09T19:09:39.106Z,10.70
2023-02-09T19:12:08.859Z,9.82
2023-02-09T19:14:42.124Z,10.98
2023-02-09T19:17:14.556Z,11.10
2023-02-09T19:19:42.758Z,10.18
2023-02-09T19:22:14.818Z,11.30
2023-02-09T19:27:13.960Z,11.27
2023-02-09T19:29:42.391Z,10.82
2023-02-09T19:32:11.501Z,12.38
2023-02-09T19:34:42.909Z,11.50
2023-02-09T19:37:12.051Z,11.18
2023-02-09T19:39:42.582Z,10.45
2023-02-09T19:42:12.614Z,10.98
2023-02-09T19:44:40.846Z,11.63
2023-02-09T19:47:09.002Z,12.68
2023-02-09T19:49:38.958Z,11.85
2023-02-09T19:52:07.554Z,11.55
2023-02-09T19:54:36.141Z,12.63
2023-02-09T19:57:05.014Z,11.23
2023-02-09T19:59:34.641Z,11.45
2023-02-09T20:02:03.280Z,12.18
2023-02-09T20:04:31.601Z,12.35
2023-02-09T20:07:00.235Z,11.57
2023-02-09T20:09:29.381Z,12.82
2023-02-09T20:11:57.618Z,13.20
2023-02-09T20:14:30.077Z,13.05
2023-02-09T20:17:01.150Z,12.10
2023-02-09T20:19:29.510Z,13.18
2023-02-09T20:21:57.788Z,12.07
2023-02-09T20:24:26.361Z,12.23
2023-02-09T20:26:56.062Z,11.90
2023-02-09T20:29:25.407Z,13.45
2023-02-09T20:31:54.010Z,13.75
2023-02-09T20:34:23.667Z,12.48
2023-02-09T20:36:51.839Z,14.48
2023-02-09T20:39:22.462Z,13.85
2023-02-09T20:42:12.339Z,13.45
2023-02-09T20:44:58.182Z,13.02
2023-02-09T20:47:27.307Z,12.80
2023-02-09T20:50:01.623Z,12.30
2023-02-09T20:52:33.320Z,12.48
2023-02-09T20:55:05.751Z,13.38
2023-02-09T20:57:34.024Z,12.65
2023-02-09T21:00:02.222Z,12.63
2023-02-09T21:02:30.317Z,13.02
2023-02-09T21:05:00.808Z,11.63
2023-02-09T21:07:28.923Z,13.07
2023-02-09T21:09:58.347Z,12.60
2023-02-09T21:12:29.484Z,12.88
2023-02-09T21:14:58.962Z,12.97
2023-02-09T21:17:31.207Z,12.55
2023-02-09T21:20:01.594Z,12.27
2023-02-09T21:22:29.708Z,13.57
2023-02-09T21:24:58.290Z,11.98
2023-02-09T21:27:27.395Z,13.45
2023-02-09T21:29:57.160Z,12.00
2023-02-09T21:32:28.995Z,13.77
2023-02-09T21:34:57.315Z,12.80
2023-02-09T21:37:29.447Z,12.95
2023-02-09T21:42:31.746Z,12.05
2023-02-09T21:45:02.675Z,11.93
2023-02-09T21:47:34.813Z,13.35
2023-02-09T21:52:34.676Z,11.98
2023-02-09T21:55:03.254Z,12.80
2023-02-09T21:57:31.649Z,11.93
2023-02-09T22:00:05.016Z,12.60
2023-02-09T22:02:33.934Z,11.85
2023-02-09T22:05:02.863Z,12.35
2023-02-09T22:07:34.987Z,13.05
2023-02-09T22:10:05.362Z,11.67
2023-02-09T22:12:34.212Z,12.95
2023-02-09T22:15:14.097Z,12.27
2023-02-09T22:17:42.604Z,12.48
2023-02-09T22:20:11.965Z,11.60
2023-02-09T22:22:44.151Z,13.55
2023-02-09T22:25:14.560Z,11.68
2023-02-09T22:27:44.316Z,11.57
2023-02-09T22:30:14.054Z,12.40
2023-02-09T22:32:43.768Z,11.65
2023-02-09T22:35:19.588Z,12.98
2023-02-09T22:37:49.879Z,12.68
2023-02-09T22:40:22.975Z,12.15
2023-02-09T22:42:51.658Z,12.13
2023-02-09T22:45:20.974Z,13.25
2023-02-09T22:47:49.471Z,13.77
2023-02-09T22:50:18.204Z,11.73
2023-02-09T22:52:47.243Z,13.18
2023-02-09T22:55:17.209Z,12.02
2023-02-09T22:57:48.963Z,12.55
2023-02-09T23:00:18.276Z,12.00
2023-02-09T23:02:46.475Z,11.75
2023-02-09T23:05:16.446Z,13.18
2023-02-09T23:07:46.575Z,12.07
2023-02-09T23:10:18.210Z,12.90
2023-02-09T23:12:46.564Z,11.50
2023-02-09T23:15:14.686Z,14.13
2023-02-09T23:17:44.110Z,11.85
2023-02-09T23:20:12.963Z,12.45
2023-02-09T23:22:41.162Z,12.63
2023-02-09T23:25:09.658Z,12.75
2023-02-09T23:27:39.133Z,12.95
2023-02-09T23:30:08.798Z,12.73
2023-02-09T23:32:40.339Z,13.40
2023-02-09T23:35:09.301Z,13.00
2023-02-09T23:37:38.354Z,13.55
2023-02-09T23:40:07.951Z,13.25
2023-02-09T23:42:36.142Z,13.23
2023-02-09T23:45:06.385Z,13.32
2023-02-09T23:47:34.654Z,13.63
2023-02-09T23:50:02.692Z,13.70
2023-02-09T23:52:31.211Z,13.65
2023-02-09T23:54:59.702Z,13.90
2023-02-09T23:57:27.826Z,14.27
2023-02-09T23:59:56.790Z,14.88
